Time;durP1;ratioP1;P1;durP2;ratioP2;P2;SDS_P1;SDS_P2;PMS_P1;PMS_P2;Temp;Humidity;BMP_temperature;BMP_pressure;BME280_temperature;BME280_humidity;BME280_pressure;Samples;Min_cycle;Max_cycle;Signal;HPM_P1;HPM_P2
2022/04/26 03:36:12;;;;;;;5.23;1.80;;;;;;;13.78;78.10;99608.30;1695969;83;21712;-77
2022/04/26 03:38:48;;;;;;;5.60;2.00;;;;;;;13.79;78.07;99605.33;1685872;82;21167;-78
2022/04/26 03:41:11;;;;;;;4.90;2.30;;;;;;;13.82;78.06;99607.41;1653243;84;21692;-78
2022/04/26 03:43:40;;;;;;;6.97;4.40;;;;;;;13.90;78.01;99614.50;1655808;85;20939;-77
2022/04/26 03:46:09;;;;;;;8.77;5.00;;;;;;;13.97;77.93;99616.22;1639567;86;21276;-78
2022/04/26 03:48:37;;;;;;;7.10;3.93;;;;;;;14.01;77.76;99617.98;1675339;83;21283;-77
2022/04/26 03:51:05;;;;;;;11.87;8.87;;;;;;;14.03;77.72;99626.54;1687767;83;21326;-77
2022/04/26 03:53:33;;;;;;;8.97;5.60;;;;;;;14.07;77.60;99634.23;1682061;83;21323;-80
2022/04/26 03:56:01;;;;;;;7.17;3.77;;;;;;;14.10;77.44;99631.49;1656334;84;21487;-78
2022/04/26 03:58:29;;;;;;;6.70;4.67;;;;;;;14.10;77.25;99637.42;1657732;84;21684;-79
2022/04/26 04:00:56;;;;;;;6.50;3.30;;;;;;;14.06;77.19;99630.52;1665059;84;21309;-78
2022/04/26 04:03:25;;;;;;;5.67;3.10;;;;;;;14.11;77.19;99639.78;1684943;83;21218;-78
2022/04/26 04:05:52;;;;;;;5.60;2.67;;;;;;;14.15;77.20;99638.62;1687225;83;21314;-78
2022/04/26 04:08:20;;;;;;;4.97;2.43;;;;;;;14.18;77.14;99640.19;1680741;83;21273;-79
2022/04/26 04:10:49;;;;;;;5.40;2.70;;;;;;;14.21;77.19;99639.55;1687476;83;21963;-79
2022/04/26 04:13:16;;;;;;;4.70;2.40;;;;;;;14.29;77.10;99646.12;1682020;83;21263;-78
2022/04/26 04:15:46;;;;;;;4.67;2.40;;;;;;;14.31;76.98;99648.75;1686654;83;21378;-79
2022/04/26 04:21:02;;;;;;;3.33;1.90;;;;;;;14.28;76.79;99657.94;1680662;83;21301;-78
2022/04/26 04:23:29;;;;;;;3.50;1.93;;;;;;;14.27;76.89;99657.70;1687690;83;21755;-78
2022/04/26 04:25:57;;;;;;;5.40;2.00;;;;;;;14.26;76.96;99661.49;1683787;83;21379;-77
2022/04/26 04:28:25;;;;;;;5.00;1.80;;;;;;;14.29;77.07;99661.68;1689016;83;21244;-78
2022/04/26 04:30:54;;;;;;;6.20;2.17;;;;;;;14.36;77.06;99662.60;1687796;83;21317;-77
2022/04/26 04:33:21;;;;;;;5.77;2.20;;;;;;;14.39;76.96;99659.31;1680681;83;21358;-79
2022/04/26 04:35:48;;;;;;;4.93;2.07;;;;;;;14.39;76.84;99660.66;1680259;83;21976;-77
2022/04/26 04:38:15;;;;;;;4.57;1.90;;;;;;;14.42;76.92;99663.29;1685216;83;21841;-78
2022/04/26 04:40:43;;;;;;;3.70;2.00;;;;;;;14.48;76.88;99667.45;1684185;83;21236;-78
2022/04/26 04:43:12;;;;;;;3.57;1.70;;;;;;;14.52;76.77;99663.87;1691787;83;21430;-79
2022/04/26 04:45:41;;;;;;;6.50;2.27;;;;;;;14.57;76.56;99666.97;1683208;83;21314;-78
2022/04/26 04:48:09;;;;;;;4.07;1.83;;;;;;;14.60;76.51;99667.71;1686975;83;21217;-78
2022/04/26 04:50:38;;;;;;;3.80;1.70;;;;;;;14.60;76.33;99664.23;1665402;84;21316;-78
2022/04/26 04:53:05;;;;;;;4.03;1.90;;;;;;;14.58;76.32;99669.92;1660227;84;21166;-79
2022/04/26 04:55:33;;;;;;;4.03;1.90;;;;;;;14.57;76.41;99675.03;1682625;83;21202;-78
2022/04/26 04:58:00;;;;;;;3.70;1.70;;;;;;;14.61;76.54;99676.03;1680519;83;21302;-79
2022/04/26 05:00:29;;;;;;;4.77;2.00;;;;;;;14.63;76.37;99679.20;1682830;83;21313;-79
2022/04/26 05:02:57;;;;;;;3.77;1.70;;;;;;;14.68;76.42;99688.49;1686000;83;21356;-78
2022/04/26 05:05:26;;;;;;;6.43;2.20;;;;;;;14.67;76.22;99687.44;1696374;84;21838;-80
2022/04/26 05:07:54;;;;;;;6.70;2.40;;;;;;;14.56;76.38;99688.23;1696522;83;21383;-80
2022/04/26 05:10:21;;;;;;;4.60;2.20;;;;;;;14.56;76.38;99688.23;1687392;83;21437;-79
2022/04/26 05:12:51;;;;;;;4.97;2.60;;;;;;;14.54;76.06;99687.21;1689457;83;22021;-78
2022/04/26 05:15:20;;;;;;;4.87;2.27;;;;;;;14.50;76.11;99693.45;1687749;83;21608;-79
2022/04/26 05:17:47;;;;;;;5.80;2.53;;;;;;;14.53;76.24;99695.56;1688260;83;21311;-79
2022/04/26 05:20:18;;;;;;;4.20;1.90;;;;;;;14.58;76.23;99691.95;1661587;84;21371;-79
2022/04/26 05:25:34;;;;;;;4.13;2.20;;;;;;;14.70;76.14;99698.92;1692643;83;21516;-78
2022/04/26 05:28:03;;;;;;;;;;;;;;;14.74;75.87;99706.62;1696827;83;21465;-78
2022/04/26 05:30:31;;;;;;;4.30;2.00;;;;;;;14.76;75.83;99709.25;1693145;82;20247;-78
2022/04/26 05:32:58;;;;;;;6.40;2.00;;;;;;;14.87;75.40;99714.38;1654129;84;21286;-79
2022/04/26 05:35:26;;;;;;;3.93;2.10;;;;;;;14.87;75.40;99714.38;1667996;85;21260;-79
2022/04/26 05:37:55;;;;;;;4.50;1.90;;;;;;;14.93;75.62;99719.33;1655941;84;21409;-79
2022/04/26 05:40:21;;;;;;;6.27;1.97;;;;;;;15.02;75.46;99727.47;1691847;83;21307;-79
2022/04/26 05:42:50;;;;;;;3.03;1.70;;;;;;;15.04;75.22;99721.77;1655064;86;21536;-78
2022/04/26 05:45:18;;;;;;;4.13;1.80;;;;;;;15.07;75.03;99728.70;1668092;84;21443;-76
2022/04/26 05:47:46;;;;;;;4.67;1.90;;;;;;;15.07;74.79;99727.88;1664002;84;22043;-78
2022/04/26 05:50:14;;;;;;;5.60;2.10;;;;;;;14.96;74.82;99728.69;1686761;83;21871;-80
2022/04/26 05:52:42;;;;;;;3.30;1.70;;;;;;;14.96;74.82;99728.69;1662640;84;21546;-79
2022/04/26 05:55:11;;;;;;;3.43;1.90;;;;;;;14.89;74.71;99723.73;1658945;84;21379;-79
2022/04/26 05:57:38;;;;;;;4.77;2.17;;;;;;;14.89;74.86;99731.02;1656521;84;21527;-79
2022/04/26 06:00:07;;;;;;;5.30;2.30;;;;;;;14.93;74.94;99730.09;1688523;83;22024;-79
2022/04/26 06:02:39;;;;;;;5.00;2.20;;;;;;;14.98;74.83;99733.22;1681014;84;21423;-79
2022/04/26 06:05:10;;;;;;;5.93;3.03;;;;;;;15.05;74.75;99738.16;1667401;84;21066;-80
2022/04/26 06:07:38;;;;;;;4.40;2.70;;;;;;;15.15;74.75;99736.57;1682033;84;21315;-79
2022/04/26 06:10:07;;;;;;;3.90;2.20;;;;;;;15.36;74.37;99728.20;1699312;84;21155;-80
2022/04/26 06:12:35;;;;;;;4.23;1.80;;;;;;;15.36;74.37;99728.20;1698185;83;21619;-78
2022/04/26 06:15:04;;;;;;;3.90;1.80;;;;;;;15.48;73.48;99736.51;1690066;83;21562;-79
2022/04/26 06:17:33;;;;;;;4.53;2.13;;;;;;;15.52;73.90;99740.72;1685594;83;21597;-80
2022/04/26 06:20:00;;;;;;;4.07;1.90;;;;;;;15.56;73.06;99748.41;1682571;83;21845;-79
2022/04/26 06:22:31;;;;;;;4.50;2.23;;;;;;;15.67;72.49;99751.12;1682487;83;21812;-78
2022/04/26 06:24:59;;;;;;;4.13;2.10;;;;;;;15.67;72.49;99751.12;1680815;83;21627;-80
2022/04/26 06:27:28;;;;;;;6.33;2.20;;;;;;;15.82;72.33;99749.11;1688523;83;21715;-78
2022/04/26 06:29:55;;;;;;;5.20;2.30;;;;;;;15.82;72.33;99749.11;1676607;83;21774;-79
2022/04/26 06:32:26;;;;;;;2.90;2.03;;;;;;;15.88;71.51;99753.25;1680285;83;21778;-80
2022/04/26 06:34:54;;;;;;;3.23;2.10;;;;;;;15.95;71.52;99755.72;1686555;83;22146;-79
2022/04/26 06:37:23;;;;;;;4.57;1.90;;;;;;;16.07;71.32;99753.00;1686128;83;21796;-80
2022/04/26 06:39:51;;;;;;;5.33;1.90;;;;;;;16.23;70.79;99753.36;1682819;83;21944;-80
2022/04/26 06:42:19;;;;;;;3.83;1.90;;;;;;;16.43;70.46;99746.57;1685648;83;21934;-80
2022/04/26 06:44:49;;;;;;;4.70;1.80;;;;;;;16.68;70.18;99750.37;1691071;82;21849;-81
2022/04/26 06:47:16;;;;;;;4.40;1.50;;;;;;;16.94;69.74;99754.45;1676714;83;21817;-79
2022/04/26 06:49:44;;;;;;;3.97;1.60;;;;;;;17.07;67.32;99756.97;1668400;86;21682;-79
2022/04/26 06:52:12;;;;;;;3.23;1.60;;;;;;;17.04;66.12;99748.16;1675021;83;21762;-81
2022/04/26 06:54:40;;;;;;;5.23;1.90;;;;;;;17.22;65.67;99752.20;1679877;83;21771;-81
2022/04/26 06:57:08;;;;;;;3.40;1.53;;;;;;;17.22;65.67;99752.20;1686359;83;21104;-79
2022/04/26 06:59:35;;;;;;;3.00;1.30;;;;;;;17.28;64.25;99750.92;1680485;83;22059;-76
2022/04/26 07:02:03;;;;;;;3.37;1.60;;;;;;;17.36;64.04;99755.48;1660385;83;21095;-81
2022/04/26 07:04:31;;;;;;;6.77;1.70;;;;;;;17.44;63.99;99749.29;1682961;83;21047;-80
2022/04/26 07:07:00;;;;;;;3.93;1.53;;;;;;;17.48;63.55;99752.92;1681916;83;21078;-80
2022/04/26 07:09:33;;;;;;;4.03;1.50;;;;;;;17.46;62.80;99757.05;1679268;83;21738;-80
2022/04/26 07:12:01;;;;;;;3.50;1.23;;;;;;;17.31;62.50;99761.08;1686544;83;21170;-79
2022/04/26 07:14:30;;;;;;;4.43;1.50;;;;;;;17.10;62.45;99763.63;1681199;83;21082;-80
2022/04/26 07:17:00;;;;;;;2.57;1.30;;;;;;;17.05;62.94;99764.61;1682023;83;21621;-80
2022/04/26 07:19:28;;;;;;;4.43;1.30;;;;;;;17.10;62.88;99756.89;1696106;84;21066;-78
2022/04/26 07:21:56;;;;;;;3.37;1.30;;;;;;;17.11;62.57;99758.49;1725302;83;21051;-79
2022/04/26 07:24:25;;;;;;;3.20;1.10;;;;;;;17.17;62.71;99761.80;1705870;82;21605;-80
2022/04/26 07:26:54;;;;;;;3.30;1.40;;;;;;;17.30;61.99;99764.30;1665726;85;20980;-77
2022/04/26 07:29:21;;;;;;;2.97;1.30;;;;;;;17.40;61.41;99764.52;1695613;84;21462;-78
2022/04/26 07:31:53;;;;;;;3.50;1.00;;;;;;;17.48;61.21;99758.33;1666712;85;21070;-79
2022/04/26 07:34:20;;;;;;;3.37;1.30;;;;;;;17.61;60.73;99762.50;1707580;83;21102;-79
2022/04/26 07:37:02;;;;;;;2.27;1.00;;;;;;;17.75;60.13;99771.17;1688228;83;21561;-80
2022/04/26 07:39:36;;;;;;;2.57;1.27;;;;;;;17.95;59.72;99770.47;1658850;84;21625;-81
2022/04/26 07:42:05;;;;;;;2.47;1.13;;;;;;;18.20;57.88;99775.52;1661923;84;21051;-79
2022/04/26 07:44:39;;;;;;;3.73;1.17;;;;;;;18.25;57.79;99770.47;1687339;82;21074;-78
2022/04/26 07:47:07;;;;;;;1.60;1.00;;;;;;;18.27;57.38;99770.39;1681070;83;21039;-79
2022/04/26 07:49:35;;;;;;;2.37;1.00;;;;;;;18.38;57.08;99775.41;1679159;84;21143;-79
2022/04/26 07:52:04;;;;;;;2.80;1.00;;;;;;;18.45;56.70;99772.41;1665408;84;21103;-78
2022/04/26 07:54:32;;;;;;;3.00;1.40;;;;;;;18.51;56.54;99775.16;1732284;82;21546;-78
2022/04/26 07:57:03;;;;;;;3.07;1.00;;;;;;;18.62;56.21;99768.78;1666423;86;21049;-78
2022/04/26 07:59:31;;;;;;;3.07;1.00;;;;;;;18.65;55.70;99772.75;1734019;82;21019;-79
2022/04/26 08:02:00;;;;;;;3.37;0.90;;;;;;;18.60;55.13;99777.81;1665877;85;22074;-77
2022/04/26 08:04:28;;;;;;;2.70;1.10;;;;;;;18.48;55.39;99779.86;1678280;83;21031;-77
2022/04/26 08:06:56;;;;;;;2.00;0.97;;;;;;;18.42;55.69;99780.39;1690154;83;20976;-78
2022/04/26 08:09:25;;;;;;;2.27;1.00;;;;;;;18.36;55.70;99791.16;1670999;84;21133;-77
2022/04/26 08:11:55;;;;;;;2.27;1.20;;;;;;;18.20;55.73;99793.66;1664504;84;21090;-77
2022/04/26 08:14:23;;;;;;;2.60;1.10;;;;;;;18.04;56.46;99789.36;1679502;83;21248;-79
2022/04/26 08:16:52;;;;;;;1.87;0.80;;;;;;;17.99;56.57;99790.31;1675404;85;21043;-79
2022/04/26 08:19:20;;;;;;;1.63;0.80;;;;;;;17.95;56.37;99805.59;1691251;82;21557;-79
2022/04/26 08:21:48;;;;;;;1.37;0.80;;;;;;;17.84;56.74;99800.90;1684558;83;21584;-78
2022/04/26 08:29:51;;;;;;;4.10;1.23;;;;;;;17.58;57.31;99805.22;1703804;84;21030;-80
2022/04/26 08:32:21;;;;;;;4.27;2.10;;;;;;;17.51;57.57;99814.94;1703537;83;21574;-79
2022/04/26 08:34:51;;;;;;;3.87;1.90;;;;;;;17.50;58.24;99814.12;1688863;83;21011;-79
2022/04/26 08:37:20;;;;;;;2.93;1.60;;;;;;;17.57;58.43;99821.73;1675759;83;21039;-79
2022/04/26 08:39:55;;;;;;;3.60;1.57;;;;;;;17.65;58.55;99824.20;1671347;85;21263;-80
2022/04/26 08:42:40;;;;;;;3.52;1.40;;;;;;;17.75;58.61;99823.84;1675945;85;21101;-79
2022/04/26 08:45:14;;;;;;;3.33;1.53;;;;;;;17.79;58.46;99820.76;1658730;85;21141;-80
2022/04/26 08:53:21;;;;;;;2.73;1.33;;;;;;;18.11;57.22;99830.73;1673928;84;21146;-78
2022/04/26 08:55:53;;;;;;;3.13;1.40;;;;;;;18.27;57.18;99827.16;1668909;86;21119;-78
2022/04/26 08:58:22;;;;;;;2.63;1.37;;;;;;;18.41;56.64;99820.16;1667106;86;21578;-78
2022/04/26 09:01:13;;;;;;;4.83;1.10;;;;;;;18.56;55.59;99822.05;1667523;84;21029;-78
2022/04/26 09:03:56;;;;;;;3.13;1.37;;;;;;;18.56;54.94;99826.10;1733856;82;21436;-77
2022/04/26 09:06:43;;;;;;;4.63;1.90;;;;;;;18.48;54.68;99827.75;1639819;87;39371;-77
2022/04/26 09:09:13;;;;;;;3.10;1.40;;;;;;;18.43;55.19;99832.02;1674204;83;21042;-80
2022/04/26 09:11:42;;;;;;;3.00;1.20;;;;;;;18.34;55.11;99828.56;1639940;87;21084;-79
2022/04/26 09:14:14;;;;;;;4.13;1.27;;;;;;;18.31;55.15;99834.62;1672636;83;21063;-78
2022/04/26 09:16:43;;;;;;;4.43;1.47;;;;;;;18.26;55.41;99824.77;1678734;83;21178;-78
2022/04/26 09:19:10;;;;;;;2.77;1.20;;;;;;;18.33;55.47;99834.53;1694130;82;21730;-77
2022/04/26 09:21:37;;;;;;;2.63;1.37;;;;;;;18.40;55.39;99846.19;1684714;83;21079;-77
2022/04/26 09:24:07;;;;;;;3.23;1.43;;;;;;;18.40;54.95;99842.13;1626158;85;21067;-79
2022/04/26 09:26:39;;;;;;;3.10;1.30;;;;;;;18.33;55.02;99843.99;1664566;84;21072;-80
2022/04/26 09:29:09;;;;;;;3.00;1.10;;;;;;;18.32;55.10;99845.66;1665617;84;21037;-78
2022/04/26 09:31:38;;;;;;;3.37;1.30;;;;;;;18.26;55.23;99850.44;1617304;84;21161;-79
2022/04/26 09:34:12;;;;;;;2.87;1.20;;;;;;;18.15;55.35;99847.32;1671278;84;20960;-78
2022/04/26 09:36:48;;;;;;;3.73;1.40;;;;;;;18.09;55.75;99845.91;1659369;84;21614;-79
2022/04/26 09:39:20;;;;;;;3.63;1.70;;;;;;;18.04;55.51;99852.30;1699873;84;21072;-79
2022/04/26 09:41:51;;;;;;;3.47;1.30;;;;;;;18.09;55.74;99846.47;1705219;83;21575;-79
2022/04/26 09:44:32;;;;;;;2.70;1.30;;;;;;;18.17;55.79;99849.72;1687088;83;20976;-78
2022/04/26 09:47:00;;;;;;;3.10;1.30;;;;;;;18.23;55.77;99843.02;1671043;85;21048;-80
2022/04/26 09:49:35;;;;;;;2.57;1.33;;;;;;;18.36;55.55;99839.28;1676838;84;21079;-79
2022/04/26 09:52:03;;;;;;;4.77;1.63;;;;;;;18.53;54.34;99853.83;1682746;83;21007;-79
2022/04/26 09:54:32;;;;;;;3.53;1.40;;;;;;;18.66;54.02;99856.85;1685098;84;20999;-79
2022/04/26 09:57:01;;;;;;;2.90;1.20;;;;;;;18.78;53.77;99850.74;1685954;83;21730;-79
2022/04/26 09:59:32;;;;;;;3.93;1.40;;;;;;;18.93;52.57;99861.78;1683257;83;21119;-78
2022/04/26 10:02:00;;;;;;;4.67;1.63;;;;;;;18.95;52.02;99858.19;1659281;83;21531;-78
2022/04/26 10:04:29;;;;;;;6.30;1.87;;;;;;;19.08;51.93;99844.70;1679951;82;21065;-81
2022/04/26 10:07:06;;;;;;;4.27;1.67;;;;;;;19.20;51.56;99855.59;1659581;83;21011;-79
2022/04/26 10:09:34;;;;;;;9.23;3.37;;;;;;;19.29;51.24;99849.55;1677936;84;21151;-81
2022/04/26 10:12:02;;;;;;;11.63;4.47;;;;;;;19.41;50.80;99855.02;1695890;83;21415;-78
2022/04/26 10:14:31;;;;;;;5.27;1.93;;;;;;;19.45;50.69;99857.85;1688084;83;21585;-79
2022/04/26 10:16:59;;;;;;;4.43;1.33;;;;;;;19.52;50.53;99858.66;1666880;84;21073;-79
2022/04/26 10:19:42;;;;;;;3.60;1.40;;;;;;;19.55;50.16;99856.64;1698246;84;20968;-79
2022/04/26 10:22:12;;;;;;;3.33;1.40;;;;;;;19.60;49.90;99858.55;1657546;84;21084;-78
2022/04/26 10:24:41;;;;;;;3.60;1.03;;;;;;;19.64;49.42;99859.52;1655418;84;21447;-77
2022/04/26 10:27:20;;;;;;;3.97;1.20;;;;;;;19.61;49.60;99859.34;1637411;86;21122;-78
2022/04/26 10:29:47;;;;;;;3.30;1.20;;;;;;;19.57;49.58;99861.93;1672510;84;21085;-78
2022/04/26 10:32:42;;;;;;;2.70;0.90;;;;;;;19.56;49.73;99871.76;1660308;84;21178;-77
2022/04/26 10:35:29;;;;;;;3.03;1.00;;;;;;;19.53;49.11;99871.86;1687345;82;21836;-77
2022/04/26 10:38:14;;;;;;;4.10;1.47;;;;;;;19.55;49.18;99875.03;1692525;83;21023;-77
2022/04/26 10:41:06;;;;;;;5.77;1.47;;;;;;;19.61;48.97;99876.95;1687180;83;21054;-78
2022/04/26 10:43:33;;;;;;;2.93;1.30;;;;;;;19.55;48.78;99877.75;1698404;83;21047;-78
2022/04/26 10:46:14;;;;;;;2.47;1.00;;;;;;;19.44;48.88;99885.47;1667960;84;21076;-79
2022/04/26 10:48:42;;;;;;;5.30;1.70;;;;;;;19.29;49.32;99886.10;1666270;84;20989;-78
2022/04/26 10:51:34;;;;;;;3.20;1.40;;;;;;;19.22;49.68;99892.61;1667115;85;21004;-79
2022/04/26 10:54:03;;;;;;;3.07;1.30;;;;;;;19.23;49.48;99894.75;1666694;84;21017;-78
2022/04/26 10:56:32;;;;;;;1.87;1.00;;;;;;;19.18;49.47;99887.61;1660584;84;21020;-77
2022/04/26 10:58:59;;;;;;;6.10;3.90;;;;;;;19.20;49.35;99892.14;1657302;85;21138;-78
2022/04/26 11:01:29;;;;;;;4.57;2.03;;;;;;;19.20;49.54;99896.20;1664755;84;21557;-78
2022/04/26 11:03:59;;;;;;;5.22;2.02;;;;;;;19.11;50.43;99895.47;1666038;84;21012;-77
2022/04/26 11:06:37;;;;;;;4.17;2.10;;;;;;;19.12;51.49;99898.43;1665237;85;21073;-78
2022/04/26 11:09:14;;;;;;;2.63;1.13;;;;;;;19.20;51.85;99892.93;1687649;83;21110;-78
2022/04/26 11:11:53;;;;;;;3.20;1.13;;;;;;;19.31;51.67;99889.25;1676601;85;20979;-77
2022/04/26 11:14:20;;;;;;;3.03;1.23;;;;;;;19.37;50.36;99884.44;1676947;83;21257;-77
2022/04/26 11:16:56;;;;;;;2.87;1.07;;;;;;;19.41;50.62;99887.52;1695850;82;20999;-77
2022/04/26 11:19:38;;;;;;;2.90;0.90;;;;;;;19.45;49.42;99901.19;1697062;83;21082;-80
2022/04/26 11:22:09;;;;;;;2.87;1.23;;;;;;;19.37;49.51;99898.77;1691808;82;21600;-78
2022/04/26 11:30:36;;;;;;;2.27;1.20;;;;;;;18.95;50.50;99909.61;1730471;83;21461;-80
2022/04/26 11:33:24;;;;;;;2.27;1.00;;;;;;;18.77;50.45;99901.36;1716103;83;20960;-80
2022/04/26 11:35:57;;;;;;;2.77;1.00;;;;;;;18.64;50.90;99911.27;1726879;83;21055;-77
2022/04/26 11:38:25;;;;;;;2.40;1.00;;;;;;;18.56;51.01;99911.30;1727280;83;21510;-78
2022/04/26 11:40:58;;;;;;;2.93;1.20;;;;;;;18.54;50.97;99914.91;1727150;83;21876;-79
2022/04/26 11:43:32;;;;;;;2.10;1.10;;;;;;;18.47;50.67;99916.77;1725917;83;21579;-78
2022/04/26 11:46:02;;;;;;;3.50;1.30;;;;;;;18.44;50.93;99910.09;1729178;83;21531;-78
2022/04/26 11:48:34;;;;;;;4.03;1.20;;;;;;;18.45;51.15;99918.98;1711122;82;21039;-77
2022/04/26 11:51:02;;;;;;;2.87;1.30;;;;;;;18.46;51.07;99911.92;1716113;83;21049;-78
2022/04/26 11:53:33;;;;;;;2.53;1.30;;;;;;;18.49;51.01;99921.27;1727058;83;21123;-78
2022/04/26 11:56:08;;;;;;;2.40;1.27;;;;;;;18.45;50.98;99918.98;1726467;83;21087;-78
2022/04/26 11:58:40;;;;;;;3.17;1.13;;;;;;;18.35;51.33;99921.49;1726795;83;21478;-76
2022/04/26 12:01:17;;;;;;;3.53;1.13;;;;;;;18.25;51.45;99927.26;1693008;83;21083;-79
2022/04/26 12:03:52;;;;;;;3.03;1.17;;;;;;;18.12;52.99;99923.64;1671148;86;21109;-78
2022/04/26 12:06:32;;;;;;;2.30;1.10;;;;;;;17.92;53.74;99931.09;1652729;86;21910;-78
2022/04/26 12:09:05;;;;;;;3.70;1.30;;;;;;;17.66;54.93;99938.64;1699159;84;21565;-79
2022/04/26 12:11:36;;;;;;;3.77;1.37;;;;;;;17.49;56.29;99928.64;1726165;83;21012;-78
2022/04/26 12:14:16;;;;;;;3.20;1.50;;;;;;;17.41;57.46;99931.36;1726228;83;21003;-79
2022/04/26 12:16:48;;;;;;;4.23;1.40;;;;;;;17.40;57.90;99941.91;1728556;83;20968;-77
2022/04/26 12:19:17;;;;;;;4.17;1.40;;;;;;;17.35;56.83;99938.25;1698101;84;21475;-77
2022/04/26 12:21:52;;;;;;;6.23;1.90;;;;;;;17.31;57.24;99937.87;1697387;83;21085;-77
2022/04/26 12:24:27;;;;;;;3.13;1.80;;;;;;;17.35;57.41;99931.51;1685931;84;21025;-77
2022/04/26 12:27:02;;;;;;;3.80;1.80;;;;;;;17.48;56.93;99936.52;1733969;82;20991;-78
2022/04/26 12:29:37;;;;;;;3.47;1.63;;;;;;;17.62;56.64;99936.91;1666840;86;21041;-80
2022/04/26 12:32:08;;;;;;;2.90;1.50;;;;;;;17.77;56.11;99935.89;1711105;82;20996;-78
2022/04/26 12:34:53;;;;;;;3.63;1.60;;;;;;;18.03;55.55;99938.55;1696654;84;21479;-79
2022/04/26 12:37:31;;;;;;;3.10;1.90;;;;;;;18.03;55.55;99938.55;1729196;83;21038;-78
2022/04/26 12:40:09;;;;;;;3.53;1.70;;;;;;;18.05;55.30;99936.30;1729048;83;21082;-79
2022/04/26 12:42:39;;;;;;;3.53;1.60;;;;;;;18.12;55.46;99930.95;1725916;83;21132;-79
2022/04/26 12:45:22;;;;;;;3.37;1.50;;;;;;;18.16;54.77;99934.03;1727240;83;21139;-78
2022/04/26 12:51:18;;;;;;;2.70;1.30;;;;;;;18.24;53.23;99954.86;1705263;83;21020;-80
2022/04/26 12:53:45;;;;;;;3.40;1.50;;;;;;;18.18;53.29;99945.33;1677247;84;20977;-79
2022/04/26 12:56:13;;;;;;;3.20;1.70;;;;;;;18.19;52.94;99940.71;1701982;84;21143;-79
2022/04/26 12:58:46;;;;;;;2.47;1.30;;;;;;;18.21;53.20;99935.22;1703103;83;21248;-78
2022/04/26 13:01:14;;;;;;;2.63;1.43;;;;;;;18.35;53.21;99946.39;1702058;84;21047;-78
2022/04/26 13:03:45;;;;;;;2.50;1.33;;;;;;;18.56;52.34;99936.98;1702032;83;21067;-80
2022/04/26 13:06:17;;;;;;;2.90;1.47;;;;;;;18.77;52.40;99939.23;1672648;84;21126;-78
2022/04/26 13:08:48;;;;;;;2.50;1.50;;;;;;;18.92;51.90;99935.16;1712613;83;21466;-78
2022/04/26 13:11:18;;;;;;;2.87;1.50;;;;;;;19.02;51.73;99946.16;1730137;83;21316;-79
2022/04/26 13:13:51;;;;;;;3.33;1.70;;;;;;;19.07;51.44;99941.92;1729733;83;20996;-79
2022/04/26 13:16:19;;;;;;;4.43;1.93;;;;;;;19.07;52.23;99952.19;1727390;83;21587;-79
2022/04/26 13:18:47;;;;;;;3.53;1.80;;;;;;;19.07;53.42;99950.04;1720016;83;21094;-80
2022/04/26 13:21:15;;;;;;;2.77;1.57;;;;;;;19.08;53.98;99947.56;1702144;84;20995;-80
2022/04/26 13:23:43;;;;;;;3.70;1.60;;;;;;;18.93;53.43;99948.37;1701838;84;20952;-80
2022/04/26 13:26:12;;;;;;;2.70;1.60;;;;;;;18.78;53.24;99958.39;1702448;83;21567;-79
2022/04/26 13:28:39;;;;;;;3.87;1.70;;;;;;;18.77;53.52;99949.27;1702168;84;21091;-78
2022/04/26 13:31:08;;;;;;;2.87;1.80;;;;;;;18.85;53.36;99952.47;1702447;84;21043;-79
2022/04/26 13:33:36;;;;;;;2.60;1.80;;;;;;;18.90;53.76;99948.23;1703673;83;21025;-80
2022/04/26 13:36:07;;;;;;;3.90;2.00;;;;;;;18.88;53.71;99949.91;1702269;84;21164;-80
2022/04/26 13:38:36;;;;;;;3.00;1.70;;;;;;;18.79;53.51;99952.42;1702559;84;27119;-77
2022/04/26 13:41:04;;;;;;;3.50;1.60;;;;;;;18.63;53.92;99953.53;1703702;84;21045;-77
2022/04/26 13:43:32;;;;;;;3.70;1.63;;;;;;;18.46;54.44;99963.30;1704584;83;21057;-79
2022/04/26 13:45:59;;;;;;;3.23;2.23;;;;;;;18.27;55.02;99960.18;1702250;84;21033;-78
2022/04/26 13:48:26;;;;;;;4.07;2.20;;;;;;;18.07;55.46;99961.66;1702102;84;21745;-78
2022/04/26 13:50:55;;;;;;;3.00;1.93;;;;;;;17.91;56.03;99973.53;1726390;83;21055;-79
2022/04/26 13:53:22;;;;;;;3.40;1.90;;;;;;;17.85;56.21;99970.75;1727177;83;21480;-78
2022/04/26 13:55:49;;;;;;;3.20;2.27;;;;;;;17.86;56.43;99977.73;1726738;83;21072;-79
2022/04/26 13:58:17;;;;;;;3.47;2.37;;;;;;;17.89;56.84;99974.39;1725630;83;21091;-76
2022/04/26 14:00:45;;;;;;;3.77;2.30;;;;;;;17.99;57.22;99970.00;1727628;83;21577;-79
2022/04/26 14:03:13;;;;;;;3.93;2.30;;;;;;;18.05;57.64;99975.48;1730328;83;20996;-78
2022/04/26 14:05:40;;;;;;;3.70;2.50;;;;;;;18.08;57.37;99973.27;1729258;83;20948;-78
2022/04/26 14:08:09;;;;;;;3.70;2.00;;;;;;;17.99;57.57;99971.36;1703853;84;21079;-78
2022/04/26 14:10:36;;;;;;;3.80;2.53;;;;;;;17.95;58.10;99966.36;1703629;84;20971;-78
2022/04/26 14:13:05;;;;;;;4.57;2.60;;;;;;;17.94;58.31;99984.27;1703134;84;20999;-79
2022/04/26 14:24:03;;;;;;;4.87;2.90;;;;;;;17.88;58.97;99984.97;1594266;89;21005;-78
2022/04/26 14:26:27;;;;;;;6.07;3.00;;;;;;;17.84;59.25;99981.33;1592039;90;21287;-80
2022/04/26 14:28:54;;;;;;;4.20;2.80;;;;;;;17.85;59.57;99991.02;1621918;85;20973;-78
2022/04/26 14:31:24;;;;;;;3.87;2.83;;;;;;;17.87;59.83;99995.55;1673437;85;21512;-78
2022/04/26 14:33:53;;;;;;;3.70;2.60;;;;;;;17.88;59.97;99990.94;1694378;83;21013;-79
2022/04/26 14:36:21;;;;;;;3.73;2.40;;;;;;;17.77;59.99;99991.83;1701885;84;21551;-78
2022/04/26 14:38:49;;;;;;;3.53;2.33;;;;;;;17.65;60.12;99987.58;1701938;84;21576;-78
2022/04/26 14:41:17;;;;;;;4.60;2.70;;;;;;;17.49;60.17;99988.05;1702945;83;21037;-80
2022/04/26 14:43:47;;;;;;;3.17;2.23;;;;;;;17.37;60.34;99998.66;1701809;84;20981;-79
2022/04/26 14:46:14;;;;;;;4.60;2.80;;;;;;;17.29;60.63;99998.90;1701668;84;21799;-79
2022/04/26 14:48:44;;;;;;;3.63;2.60;;;;;;;17.22;60.85;99999.92;1699681;84;21444;-78
2022/04/26 14:51:11;;;;;;;3.67;2.77;;;;;;;17.11;61.69;99999.44;1698632;83;21537;-78
2022/04/26 14:53:40;;;;;;;3.80;2.47;;;;;;;16.98;62.53;100010.33;1701994;84;21099;-79
2022/04/26 14:56:12;;;;;;;3.10;2.00;;;;;;;16.84;62.30;100015.28;1701834;84;21651;-79
2022/04/26 14:58:41;;;;;;;2.87;1.80;;;;;;;16.71;60.99;100021.54;1702772;83;21522;-79
2022/04/26 15:01:08;;;;;;;4.30;2.40;;;;;;;16.60;59.70;100025.62;1702814;83;20991;-76
2022/04/26 15:03:37;;;;;;;4.23;1.90;;;;;;;16.53;59.83;100032.02;1704835;84;21075;-77
2022/04/26 15:06:05;;;;;;;2.97;1.80;;;;;;;16.46;60.12;100048.63;1704070;84;20984;-78
2022/04/26 15:11:19;;;;;;;3.10;2.40;;;;;;;16.21;61.85;100055.99;1701717;84;20977;-79
2022/04/26 15:16:37;;;;;;;5.60;3.80;;;;;;;15.79;64.23;100072.84;1701822;84;21728;-78
2022/04/26 15:19:10;;;;;;;4.57;3.40;;;;;;;15.65;64.81;100079.03;1701603;84;21748;-79
2022/04/26 15:21:44;;;;;;;5.27;4.17;;;;;;;15.54;65.61;100076.31;1707922;83;21751;-78
2022/04/26 15:24:12;;;;;;;5.50;4.50;;;;;;;15.45;66.22;100082.95;1679948;84;21781;-79
2022/04/26 15:26:41;;;;;;;6.07;4.50;;;;;;;15.33;66.90;100095.31;1701792;84;21681;-80
2022/04/26 15:29:08;;;;;;;5.80;4.67;;;;;;;15.16;67.44;100087.29;1702024;84;21664;-78
2022/04/26 15:31:39;;;;;;;6.67;4.93;;;;;;;15.10;68.10;100095.20;1702635;83;21709;-79
2022/04/26 15:34:07;;;;;;;7.23;5.50;;;;;;;15.04;68.31;100100.45;1701738;84;21752;-79
2022/04/26 15:36:35;;;;;;;7.43;6.07;;;;;;;14.94;68.64;100102.78;1702313;84;21655;-79
2022/04/26 15:39:02;;;;;;;6.63;5.43;;;;;;;14.94;68.86;100098.75;1702123;84;21589;-79
2022/04/26 15:41:32;;;;;;;7.87;6.33;;;;;;;14.96;68.64;100099.23;1701909;84;22196;-79
2022/04/26 15:44:03;;;;;;;8.37;6.10;;;;;;;14.96;68.64;100099.23;1701811;84;21555;-79
2022/04/26 15:46:31;;;;;;;7.17;6.03;;;;;;;14.92;69.09;100100.93;1702067;84;21668;-80
2022/04/26 15:49:02;;;;;;;8.87;6.53;;;;;;;14.85;69.43;100106.45;1711807;83;21820;-78
2022/04/26 15:51:29;;;;;;;8.17;6.87;;;;;;;14.80;69.76;100110.02;1702152;84;21684;-79
2022/04/26 15:53:56;;;;;;;8.50;6.90;;;;;;;14.78;70.04;100114.36;1702695;84;21560;-79
2022/04/26 15:56:24;;;;;;;13.63;9.80;;;;;;;14.75;70.43;100116.28;1702123;84;21443;-78
2022/04/26 15:58:51;;;;;;;16.17;11.37;;;;;;;14.71;70.91;100113.94;1720485;83;21796;-78
2022/04/26 16:01:18;;;;;;;11.07;8.57;;;;;;;14.68;71.46;100121.25;1730046;83;21436;-79